Últimos artigos:
Acender um LED com a tensão da rede eléctrica
Programação do Yaesu FT-60 para os EasySats
AO-91 (RadFxSat Fox-1B) está no Ar!
CT7AFR DIY CW-Keyer
Shutdown button for the Raspberry Pi
Simple C code to dump I2C device memory
Últimas fotos:
Últimos METARs:
LPAZ 200030Z 28008KT 9999 SCT018 17/13 Q10...
LPFR 200030Z 27008KT CAVOK 15/13 Q1014=
LPHR 192300Z 26010KT 9999 FEW012 BKN022 18...
LPLA 200000Z /////KT 9999 FEW020 17/14 Q10...
LPMA 200030Z 01005KT 320V030 9999 SCT015 S...
LPPD 200030Z 26009KT 9999 FEW018 17/15 Q10...
LPPR 200030Z 00000KT CAVOK 10/09 Q1015=
LPPS 200030Z 34009KT 9999 SCT012 BKN030 18...
LPPT 200030Z 33006KT 290V350 CAVOK 13/09 Q...
Últimos QSOs:
2019/05/19-20:02 6m S57TW (BOJAN)
2019/05/19-19:57 6m CT1EEB (JOSE)
2019/05/19-19:51 6m M6PWD (PAUL)
2019/05/19-19:49 6m G8HGN (ROBERT)
2019/05/19-19:47 6m M0IPU (IULIAN)
2019/05/19-19:45 6m G8HZQ (PHILIP)
  UTC
Rpi-6 CPU Temp: 31.5 °C (200041Z)
IN51oq 0048Z /////KT //// 21/9 Q1015=
31847